Time;durP1;ratioP1;P1;durP2;ratioP2;P2;SDS_P1;SDS_P2;PMS_P1;PMS_P2;Temp;Humidity;BMP_temperature;BMP_pressure;BME280_temperature;BME280_humidity;BME280_pressure;Samples;Min_cycle;Max_cycle;Signal;HPM_P1;HPM_P2
2023/08/08 00:01:43;;;;;;;;;3.50;3.50;;;;;14.75;75.56;99750.69;4978110;28;8840;-62
2023/08/08 00:04:10;;;;;;;;;3.00;3.00;;;;;14.62;75.64;99735.97;4977643;28;8816;-63
2023/08/08 00:06:38;;;;;;;;;1.80;1.80;;;;;14.48;75.57;99745.38;4977879;28;8832;-60
2023/08/08 00:09:06;;;;;;;;;1.00;1.00;;;;;14.39;76.34;99735.59;4977938;28;8820;-60
2023/08/08 00:11:34;;;;;;;;;1.00;1.00;;;;;14.30;76.32;99732.97;4977561;28;8854;-60
2023/08/08 00:14:01;;;;;;;;;1.00;0.50;;;;;14.25;77.04;99729.88;4977785;28;8856;-62
2023/08/08 00:16:29;;;;;;;;;1.00;1.00;;;;;14.20;77.20;99721.47;4977660;28;8829;-63
2023/08/08 00:18:57;;;;;;;;;3.00;3.00;;;;;14.17;77.26;99721.72;4977614;28;8851;-62
2023/08/08 00:21:24;;;;;;;;;3.00;2.00;;;;;14.13;76.86;99709.66;4977897;28;8855;-62
2023/08/08 00:23:52;;;;;;;;;1.50;1.50;;;;;14.12;77.21;99702.59;4977582;28;8838;-62
2023/08/08 00:26:20;;;;;;;;;3.25;3.25;;;;;14.11;76.88;99698.25;4977196;28;8858;-63
2023/08/08 00:28:47;;;;;;;;;1.00;1.00;;;;;14.09;76.84;99705.56;4976867;28;8939;-62
2023/08/08 00:31:17;;;;;;;;;1.00;1.00;;;;;14.09;77.32;99705.56;4977466;28;8827;-62
2023/08/08 00:33:45;;;;;;;;;3.00;3.00;;;;;14.12;76.69;99703.44;4977317;28;8820;-60
2023/08/08 00:36:12;;;;;;;;;1.00;1.00;;;;;14.16;76.47;99703.97;4977354;28;8857;-62
2023/08/08 00:38:41;;;;;;;;;2.00;1.00;;;;;14.22;76.79;99703.41;4977341;28;8844;-61
2023/08/08 00:41:08;;;;;;;;;1.00;1.00;;;;;14.26;76.56;99704.81;4977441;28;8829;-62
2023/08/08 00:43:36;;;;;;;;;1.00;1.00;;;;;14.30;76.79;99687.41;4977291;28;8828;-62
2023/08/08 00:46:03;;;;;;;;;1.00;1.00;;;;;14.37;76.53;99688.50;4977074;28;8820;-61
2023/08/08 00:48:31;;;;;;;;;3.00;3.00;;;;;14.40;76.15;99690.88;4977081;28;8951;-63
2023/08/08 00:50:59;;;;;;;;;1.00;1.00;;;;;14.44;76.59;99694.94;4977287;28;8821;-62
2023/08/08 00:53:28;;;;;;;;;1.80;1.80;;;;;14.48;76.11;99696.34;4977244;28;8832;-60
2023/08/08 00:55:55;;;;;;;;;1.00;1.00;;;;;14.53;76.05;99692.19;4977308;28;8836;-60
2023/08/08 00:58:23;;;;;;;;;1.00;1.00;;;;;14.57;76.35;99682.00;4976908;28;9547;-61
2023/08/08 01:00:59;;;;;;;;;4.00;4.00;;;;;14.60;75.90;99681.69;4976857;28;8855;-60
2023/08/08 01:03:28;;;;;;;;;2.50;2.50;;;;;14.65;75.44;99684.75;4977295;28;8918;-60
2023/08/08 01:05:55;;;;;;;;;1.50;1.00;;;;;14.67;75.44;99682.75;4977522;28;8852;-59
2023/08/08 01:08:23;;;;;;;;;1.00;1.00;;;;;14.67;75.82;99680.94;4977244;28;8854;-61
2023/08/08 01:10:50;;;;;;;;;2.00;2.00;;;;;14.68;75.93;99681.75;4976961;28;8828;-60
2023/08/08 01:13:18;;;;;;;;;1.50;1.50;;;;;14.68;75.66;99689.81;4977239;28;9523;-60
2023/08/08 01:15:46;;;;;;;;;3.50;2.00;;;;;14.68;75.89;99679.94;4977309;28;8832;-60
2023/08/08 01:18:14;;;;;;;;;1.00;1.00;;;;;14.71;75.96;99686.84;4977175;28;8829;-60
2023/08/08 01:20:42;;;;;;;;;3.00;3.00;;;;;14.74;75.87;99686.50;4976993;28;8832;-60
2023/08/08 01:23:10;;;;;;;;;1.50;1.00;;;;;14.77;75.72;99691.56;4976770;28;8834;-60
2023/08/08 01:25:37;;;;;;;;;1.00;1.00;;;;;14.78;75.90;99682.50;4976989;28;8817;-60
2023/08/08 01:28:06;;;;;;;;;3.50;2.00;;;;;14.80;75.92;99683.22;4976498;28;8848;-60
2023/08/08 01:30:34;;;;;;;;;3.00;3.00;;;;;14.80;75.34;99680.53;4976890;28;9471;-60
2023/08/08 01:33:02;;;;;;;;;1.00;1.00;;;;;14.80;75.85;99678.69;4976787;28;8824;-60
2023/08/08 01:35:29;;;;;;;;;2.60;2.60;;;;;14.81;75.37;99675.00;4977209;28;8931;-61
2023/08/08 01:37:57;;;;;;;;;3.00;3.00;;;;;14.83;75.73;99677.53;4976447;28;8855;-60
2023/08/08 01:40:25;;;;;;;;;1.00;1.00;;;;;14.86;75.77;99677.25;4976478;28;8832;-61
2023/08/08 01:42:52;;;;;;;;;3.00;3.00;;;;;14.89;75.13;99676.91;4976564;28;8836;-60
2023/08/08 01:45:19;;;;;;;;;3.00;3.00;;;;;14.93;75.26;99672.91;4976412;28;8820;-63
2023/08/08 01:47:47;;;;;;;;;2.00;2.00;;;;;14.96;75.41;99669.94;4976156;28;8850;-60
2023/08/08 01:50:15;;;;;;;;;2.00;2.00;;;;;14.99;74.97;99675.84;4976762;28;8852;-62
2023/08/08 01:52:43;;;;;;;;;3.40;2.20;;;;;15.00;75.11;99680.19;4975851;28;8837;-61
2023/08/08 01:55:11;;;;;;;;;3.00;3.00;;;;;15.00;75.16;99673.97;4976257;28;8840;-61
2023/08/08 01:57:38;;;;;;;;;1.00;1.00;;;;;14.99;74.66;99665.09;4976741;28;9519;-61
2023/08/08 02:00:06;;;;;;;;;0.60;0.60;;;;;15.00;75.40;99680.19;4976966;28;8832;-60
2023/08/08 02:02:35;;;;;;;;;1.40;1.40;;;;;14.99;75.35;99665.09;4979996;28;8845;-60
2023/08/08 02:05:03;;;;;;;;;1.00;1.00;;;;;15.00;75.36;99663.25;4979787;28;8820;-62
2023/08/08 02:07:31;;;;;;;;;4.60;3.80;;;;;15.00;75.25;99664.09;4979787;28;8824;-61
2023/08/08 02:09:59;;;;;;;;;3.40;3.40;;;;;15.01;75.27;99664.97;4980260;28;9525;-61
2023/08/08 02:12:28;;;;;;;;;3.20;3.00;;;;;15.00;74.93;99660.56;4979836;28;8832;-60
2023/08/08 02:14:56;;;;;;;;;0.00;0.00;;;;;14.99;74.71;99658.88;4979690;28;8828;-63
2023/08/08 02:17:23;;;;;;;;;1.00;1.00;;;;;14.97;75.36;99660.88;4979650;28;8835;-61
2023/08/08 02:19:51;;;;;;;;;4.00;4.00;;;;;14.92;75.38;99658.69;4980098;28;8832;-62
2023/08/08 02:22:19;;;;;;;;;1.00;1.00;;;;;14.89;75.03;99655.47;4980056;28;8824;-60
2023/08/08 02:24:46;;;;;;;;;0.60;0.60;;;;;14.84;75.11;99653.25;4979721;28;9499;-62
2023/08/08 02:27:14;;;;;;;;;3.40;3.20;;;;;14.77;75.36;99646.84;4980216;28;9506;-62
2023/08/08 02:29:42;;;;;;;;;3.00;1.40;;;;;14.72;75.68;99643.75;4979929;28;8821;-60
2023/08/08 02:32:09;;;;;;;;;3.00;3.00;;;;;14.67;75.74;99648.78;4980070;28;8833;-61
2023/08/08 02:34:38;;;;;;;;;3.00;3.00;;;;;14.61;76.11;99649.38;4980133;28;8836;-61
2023/08/08 02:37:05;;;;;;;;;1.40;1.40;;;;;14.59;76.08;99647.84;4979797;28;9506;-63
2023/08/08 02:39:33;;;;;;;;;1.00;1.00;;;;;14.59;75.94;99638.00;4979575;28;8841;-62
2023/08/08 02:42:01;;;;;;;;;1.40;1.00;;;;;14.58;75.56;99636.28;4979304;28;8813;-62
2023/08/08 02:44:28;;;;;;;;;3.00;3.00;;;;;14.61;75.59;99640.50;4979478;28;8817;-61
2023/08/08 02:46:56;;;;;;;;;3.00;3.00;;;;;14.62;75.19;99634.97;4978912;28;8851;-62
2023/08/08 02:49:24;;;;;;;;;1.00;1.00;;;;;14.67;75.32;99635.38;4979401;28;9208;-62
2023/08/08 02:51:51;;;;;;;;;6.00;4.00;;;;;14.71;75.39;99633.22;4979230;28;8832;-61
2023/08/08 02:54:19;;;;;;;;;4.00;2.60;;;;;14.73;75.45;99636.59;4979193;28;8829;-61
2023/08/08 02:56:47;;;;;;;;;1.00;1.00;;;;;14.75;75.18;99634.56;4979243;28;8832;-63
2023/08/08 02:59:15;;;;;;;;;1.40;1.40;;;;;14.76;75.01;99633.56;4978966;28;8825;-60
2023/08/08 03:01:42;;;;;;;;;3.00;2.00;;;;;14.77;74.99;99629.91;4979210;28;8821;-61
2023/08/08 03:04:10;;;;;;;;;2.00;1.00;;;;;14.77;74.64;99627.22;4979222;28;8899;-61
2023/08/08 03:06:38;;;;;;;;;2.80;2.60;;;;;14.76;75.45;99628.22;4978216;28;9733;-61
2023/08/08 03:09:06;;;;;;;;;3.00;2.60;;;;;14.76;75.58;99628.22;4977880;28;8844;-61
2023/08/08 03:11:34;;;;;;;;;3.00;3.00;;;;;14.77;75.08;99629.91;4977872;28;8837;-60
2023/08/08 03:14:02;;;;;;;;;1.40;1.40;;;;;14.77;75.23;99625.38;4977336;28;8828;-61
2023/08/08 03:16:30;;;;;;;;;3.20;3.00;;;;;14.78;74.96;99626.22;4977013;28;8828;-60
2023/08/08 03:18:58;;;;;;;;;2.60;2.20;;;;;14.77;75.08;99628.06;4977162;28;8820;-62
2023/08/08 03:21:26;;;;;;;;;1.00;1.00;;;;;14.79;75.14;99622.56;4977474;28;8832;-60
2023/08/08 03:23:53;;;;;;;;;1.00;1.00;;;;;14.78;75.33;99624.38;4978336;28;8829;-63
2023/08/08 03:26:21;;;;;;;;;4.00;3.60;;;;;14.79;75.36;99617.19;4978188;28;8839;-62
2023/08/08 03:28:50;;;;;;;;;1.50;1.50;;;;;14.79;75.23;99611.84;4978499;28;8832;-63
2023/08/08 03:31:18;;;;;;;;;3.60;3.00;;;;;14.78;75.41;99599.41;4978552;28;8844;-63
2023/08/08 03:33:46;;;;;;;;;3.00;1.00;;;;;14.76;75.52;99607.63;4978524;28;8853;-63
2023/08/08 03:36:13;;;;;;;;;2.20;1.00;;;;;14.75;75.43;99597.06;4978402;28;8829;-58
2023/08/08 03:38:44;;;;;;;;;0.00;0.00;;;;;14.74;75.08;99592.69;4978760;28;8847;-61
2023/08/08 03:41:11;;;;;;;;;1.40;1.40;;;;;14.76;74.63;99612.13;4978538;28;8871;-60
2023/08/08 03:43:39;;;;;;;;;3.00;2.60;;;;;14.75;74.97;99615.81;4978476;28;8829;-61
2023/08/08 03:46:07;;;;;;;;;1.00;1.00;;;;;14.73;75.18;99615.97;4978313;28;8821;-60
2023/08/08 03:48:34;;;;;;;;;3.75;3.75;;;;;14.73;75.48;99612.47;4978101;28;8836;-61
2023/08/08 03:51:02;;;;;;;;;3.00;3.00;;;;;14.73;75.53;99604.41;4978067;28;8939;-63
2023/08/08 03:53:29;;;;;;;;;3.00;3.00;;;;;14.74;75.11;99614.13;4977879;28;8849;-60
2023/08/08 03:55:59;;;;;;;;;3.80;3.00;;;;;14.72;75.14;99594.69;4977831;28;8840;-62
2023/08/08 03:58:27;;;;;;;;;3.75;3.00;;;;;14.74;75.51;99614.13;4978206;28;8851;-61
2023/08/08 04:00:54;;;;;;;;;3.75;3.75;;;;;14.74;75.47;99623.03;4977532;28;8855;-61
2023/08/08 04:03:22;;;;;;;;;3.00;3.00;;;;;14.74;75.49;99632.91;4976774;28;8844;-61
2023/08/08 04:05:50;;;;;;;;;4.00;3.80;;;;;14.73;74.89;99629.38;4977082;28;8974;-61
2023/08/08 04:08:18;;;;;;;;;6.00;4.00;;;;;14.73;75.42;99633.91;4977509;28;9565;-61
2023/08/08 04:10:48;;;;;;;;;3.00;3.00;;;;;14.73;75.34;99631.22;4977384;28;9533;-63
2023/08/08 04:13:16;;;;;;;;;3.50;3.50;;;;;14.71;75.55;99620.66;4977604;28;8832;-63
2023/08/08 04:15:43;;;;;;;;;5.00;4.00;;;;;14.48;75.64;99619.44;4976483;28;8837;-62
2023/08/08 04:18:12;;;;;;;;;5.00;4.00;;;;;14.22;76.69;99607.00;4975925;28;8951;-63
2023/08/08 04:20:40;;;;;;;;;4.00;4.00;;;;;14.00;77.28;99600.22;4976236;28;8836;-60
2023/08/08 04:23:08;;;;;;;;;3.75;3.00;;;;;13.87;77.61;99596.22;4976255;28;8824;-63
2023/08/08 04:25:35;;;;;;;;;4.00;4.00;;;;;13.75;77.93;99595.59;4976732;28;8836;-62
2023/08/08 04:28:03;;;;;;;;;6.00;4.00;;;;;13.67;78.27;99590.16;4976983;28;8836;-62
2023/08/08 04:30:31;;;;;;;;;6.75;6.00;;;;;13.62;78.34;99592.44;4977065;28;8842;-62
2023/08/08 04:32:58;;;;;;;;;4.00;4.00;;;;;13.59;78.66;99584.69;4977632;28;8835;-62
2023/08/08 04:35:26;;;;;;;;;6.00;6.00;;;;;13.57;78.21;99585.84;4977207;28;8865;-62
2023/08/08 04:37:54;;;;;;;;;5.00;4.00;;;;;13.53;78.57;99587.16;4976793;28;8829;-62
2023/08/08 04:40:22;;;;;;;;;5.00;5.00;;;;;13.51;78.86;99594.47;4977098;28;8932;-60
2023/08/08 04:42:49;;;;;;;;;6.50;4.00;;;;;13.49;78.79;99597.31;4976901;28;8840;-61
2023/08/08 04:45:17;;;;;;;;;6.00;5.50;;;;;13.48;78.87;99594.75;4977033;28;8840;-61
2023/08/08 04:47:44;;;;;;;;;6.00;6.00;;;;;13.46;78.73;99602.09;4976738;28;8840;-62
2023/08/08 04:50:12;;;;;;;;;6.00;6.00;;;;;13.45;78.51;99600.41;4976772;28;8828;-61
2023/08/08 04:52:40;;;;;;;;;6.00;6.00;;;;;13.46;79.41;99604.78;4976506;28;8829;-59
2023/08/08 04:55:07;;;;;;;;;5.00;5.00;;;;;13.48;79.50;99597.44;4976639;28;8867;-62
2023/08/08 04:57:35;;;;;;;;;6.50;5.00;;;;;13.51;79.07;99594.47;4976446;28;8821;-60
2023/08/08 05:00:05;;;;;;;;;6.50;6.00;;;;;13.57;79.02;99600.06;4976733;28;8832;-62
2023/08/08 05:02:33;;;;;;;;;9.25;9.00;;;;;13.64;78.64;99597.63;4976392;28;8836;-61
2023/08/08 05:05:01;;;;;;;;;6.25;6.00;;;;;13.70;78.65;99599.72;4976557;28;8816;-61
2023/08/08 05:07:29;;;;;;;;;2.50;1.00;;;;;13.74;78.54;99601.94;4976995;28;9523;-61
2023/08/08 05:09:57;;;;;;;;;8.00;8.00;;;;;13.80;79.07;99597.81;4976666;28;8844;-60
2023/08/08 05:12:25;;;;;;;;;6.75;6.75;;;;;13.82;78.36;99595.84;4975217;28;8840;-61
2023/08/08 05:14:54;;;;;;;;;5.50;5.50;;;;;13.84;78.16;99592.03;4974957;28;8839;-60
2023/08/08 05:17:22;;;;;;;;;6.00;5.50;;;;;13.87;78.39;99591.72;4975451;28;8854;-60
2023/08/08 05:19:50;;;;;;;;;9.00;8.00;;;;;13.91;78.54;99602.97;4975214;28;8907;-63
2023/08/08 05:22:17;;;;;;;;;7.00;6.00;;;;;13.94;78.69;99603.50;4975108;28;8840;-61
2023/08/08 05:24:45;;;;;;;;;6.75;6.00;;;;;14.00;78.17;99596.69;4974730;28;8851;-61
2023/08/08 05:27:13;;;;;;;;;7.00;7.00;;;;;14.04;78.50;99590.88;4974872;28;8841;-62
2023/08/08 05:29:41;;;;;;;;;7.50;6.50;;;;;14.08;78.29;99600.31;4975452;28;8844;-60
2023/08/08 05:32:08;;;;;;;;;10.25;9.75;;;;;14.09;78.26;99593.94;4974624;28;8863;-61
2023/08/08 05:34:36;;;;;;;;;6.00;6.00;;;;;14.10;78.16;99601.00;4974281;28;8843;-61
2023/08/08 05:37:04;;;;;;;;;7.50;7.50;;;;;14.10;78.39;99602.81;4978105;28;8828;-63
2023/08/08 05:39:44;;;;;;;;;10.00;9.00;;;;;14.13;78.17;99602.53;4977890;28;8930;-61
2023/08/08 05:42:11;;;;;;;;;9.25;8.50;;;;;14.16;78.69;99602.22;4977811;28;8851;-60
2023/08/08 05:44:41;;;;;;;;;9.25;9.25;;;;;14.19;78.62;99600.09;4976273;28;8832;-61
2023/08/08 05:47:09;;;;;;;;;5.00;4.75;;;;;14.22;78.54;99604.31;4976468;28;9523;-62
2023/08/08 05:49:37;;;;;;;;;12.50;10.50;;;;;14.24;78.15;99605.84;4976607;28;8987;-62
2023/08/08 05:52:04;;;;;;;;;10.25;7.50;;;;;14.24;78.12;99594.28;4975213;28;8903;-61
2023/08/08 05:54:32;;;;;;;;;12.00;10.50;;;;;14.23;78.18;99603.31;4975434;28;8839;-60
2023/08/08 05:57:00;;;;;;;;;11.50;10.50;;;;;14.24;78.29;99605.00;4975899;28;8887;-60
2023/08/08 05:59:27;;;;;;;;;10.25;6.50;;;;;14.26;78.47;99603.03;4976270;28;8852;-61
2023/08/08 06:01:55;;;;;;;;;10.50;10.25;;;;;14.30;78.42;99601.72;4975976;28;9530;-61
2023/08/08 06:04:23;;;;;;;;;12.50;12.50;;;;;14.32;78.05;99613.94;4976855;28;8840;-63
2023/08/08 06:06:51;;;;;;;;;10.75;10.00;;;;;14.34;78.42;99605.78;4976934;28;8847;-62
2023/08/08 06:09:19;;;;;;;;;13.00;12.00;;;;;14.34;78.33;99619.16;4976128;28;8858;-61
2023/08/08 06:11:47;;;;;;;;;9.50;6.75;;;;;14.34;78.19;99619.16;4975948;28;8840;-61
2023/08/08 06:14:14;;;;;;;;;15.50;13.50;;;;;14.32;78.31;99607.75;4976714;28;8824;-62
2023/08/08 06:16:42;;;;;;;;;12.00;10.00;;;;;14.32;78.07;99613.09;4976163;28;8971;-61
2023/08/08 06:19:11;;;;;;;;;9.25;9.00;;;;;14.34;78.42;99617.31;4977157;28;8840;-61
2023/08/08 06:21:39;;;;;;;;;5.00;5.00;;;;;14.37;77.94;99616.16;4976052;28;8889;-61
2023/08/08 06:24:07;;;;;;;;;14.00;12.25;;;;;14.39;78.59;99631.09;4977810;28;8828;-62
2023/08/08 06:26:35;;;;;;;;;12.00;10.00;;;;;14.42;78.27;99628.09;4977900;28;8863;-61
2023/08/08 06:29:03;;;;;;;;;8.25;8.25;;;;;14.47;78.07;99627.63;4977087;28;8858;-61
2023/08/08 06:31:30;;;;;;;;;14.00;14.00;;;;;14.51;78.17;99623.66;4977596;28;8870;-61
2023/08/08 06:33:58;;;;;;;;;12.00;12.00;;;;;14.51;78.45;99629.84;4978172;28;8836;-62
2023/08/08 06:36:26;;;;;;;;;18.00;15.00;;;;;14.55;78.01;99625.88;4976541;28;8858;-61
2023/08/08 06:38:53;;;;;;;;;15.25;13.50;;;;;14.60;78.39;99625.41;4977771;28;8820;-63
2023/08/08 06:41:21;;;;;;;;;16.75;15.50;;;;;14.65;78.19;99625.78;4977150;28;8909;-61
2023/08/08 06:43:49;;;;;;;;;13.50;11.25;;;;;14.69;77.76;99619.13;4976851;28;8853;-61
2023/08/08 06:46:20;;;;;;;;;14.00;12.75;;;;;14.74;77.69;99620.34;4975798;28;8966;-61
2023/08/08 06:48:49;;;;;;;;;18.00;15.75;;;;;14.84;77.86;99625.59;4975945;28;8850;-64
2023/08/08 06:51:16;;;;;;;;;15.25;11.75;;;;;14.91;77.63;99618.59;4974667;28;8849;-62
2023/08/08 06:53:44;;;;;;;;;13.25;13.25;;;;;14.98;77.60;99630.38;4975760;28;9244;-61
2023/08/08 06:56:12;;;;;;;;;10.00;10.00;;;;;15.04;77.47;99621.72;4974942;28;8832;-60
2023/08/08 06:58:40;;;;;;;;;17.50;15.25;;;;;15.08;77.14;99629.28;4975382;28;8946;-61
2023/08/08 07:01:08;;;;;;;;;13.50;12.25;;;;;15.11;77.35;99628.97;4975909;28;8860;-62
2023/08/08 07:03:36;;;;;;;;;13.00;10.75;;;;;15.16;77.18;99621.28;4976021;28;8966;-63
2023/08/08 07:06:04;;;;;;;;;13.50;11.25;;;;;15.21;76.95;99627.03;4976301;28;8844;-61
2023/08/08 07:08:32;;;;;;;;;14.25;13.50;;;;;15.27;77.29;99629.09;4976678;28;8841;-61
2023/08/08 07:11:00;;;;;;;;;14.00;13.25;;;;;15.34;76.76;99623.94;4976670;28;8836;-63
2023/08/08 07:13:28;;;;;;;;;13.75;13.25;;;;;15.38;76.95;99630.66;4976074;28;8852;-61
2023/08/08 07:15:56;;;;;;;;;13.50;12.00;;;;;15.45;76.73;99621.81;4975784;28;8859;-62
2023/08/08 07:18:23;;;;;;;;;17.50;16.00;;;;;15.57;77.29;99630.44;4976115;28;8963;-62
2023/08/08 07:20:51;;;;;;;;;15.50;14.00;;;;;15.65;76.85;99622.41;4976730;28;8829;-61
2023/08/08 07:23:20;;;;;;;;;12.50;12.00;;;;;15.73;76.21;99617.91;4976474;28;8975;-61
2023/08/08 07:25:47;;;;;;;;;16.25;14.25;;;;;15.90;76.10;99630.38;4975331;28;8950;-61
2023/08/08 07:28:18;;;;;;;;;17.75;14.50;;;;;15.96;76.14;99620.84;4975157;28;8849;-63
2023/08/08 07:30:45;;;;;;;;;13.25;12.00;;;;;15.93;76.12;99611.25;4974638;28;8958;-62
2023/08/08 07:33:14;;;;;;;;;11.25;11.25;;;;;15.96;76.15;99612.78;4975033;28;8825;-62
2023/08/08 07:35:42;;;;;;;;;15.75;14.00;;;;;16.03;76.21;99611.97;4974565;28;8860;-62
2023/08/08 07:38:10;;;;;;;;;6.60;6.00;;;;;16.14;75.86;99610.81;4974568;28;8856;-61
2023/08/08 07:40:40;;;;;;;;;15.60;14.20;;;;;16.27;75.39;99610.13;4975788;28;9332;-62
2023/08/08 07:43:08;;;;;;;;;12.00;10.80;;;;;16.38;75.88;99605.50;4975365;28;8844;-61
2023/08/08 07:45:37;;;;;;;;;9.60;9.40;;;;;16.40;75.31;99610.53;4975631;28;9693;-61
2023/08/08 07:48:04;;;;;;;;;14.20;11.60;;;;;16.39;75.32;99602.63;4975618;28;8843;-61
2023/08/08 07:50:32;;;;;;;;;13.00;12.80;;;;;16.30;75.50;99592.84;4976067;28;8836;-62
2023/08/08 07:53:00;;;;;;;;;20.00;14.00;;;;;16.19;76.42;99596.69;4975414;28;8828;-61
2023/08/08 07:55:28;;;;;;;;;10.00;10.00;;;;;16.23;75.83;99587.31;4976135;28;9650;-62
2023/08/08 07:57:56;;;;;;;;;12.80;11.60;;;;;16.36;75.73;99590.34;4975809;28;8865;-62
2023/08/08 08:00:24;;;;;;;;;9.80;9.00;;;;;16.53;75.82;99586.69;4975991;28;9216;-63
2023/08/08 08:02:52;;;;;;;;;12.00;11.80;;;;;16.71;75.26;99587.34;4975261;28;8918;-62
2023/08/08 08:05:19;;;;;;;;;10.40;10.40;;;;;16.90;74.53;99592.38;4975752;28;8854;-62
2023/08/08 08:07:47;;;;;;;;;12.60;12.00;;;;;17.02;74.38;99592.84;4974459;28;8860;-62
2023/08/08 08:10:15;;;;;;;;;11.40;10.40;;;;;17.02;74.00;99591.00;4974196;28;8829;-61
2023/08/08 08:12:43;;;;;;;;;12.80;10.80;;;;;17.05;74.70;99589.81;4971835;28;8833;-62
2023/08/08 08:15:11;;;;;;;;;9.00;9.00;;;;;17.06;74.63;99591.47;4972273;28;8879;-61
2023/08/08 08:17:39;;;;;;;;;15.00;14.60;;;;;17.12;74.01;99588.13;4972767;28;9261;-63
2023/08/08 08:20:10;;;;;;;;;12.00;9.00;;;;;17.16;74.66;99582.22;4973728;28;8848;-62
2023/08/08 08:22:38;;;;;;;;;10.20;9.20;;;;;17.24;74.37;99575.97;4972880;28;8914;-61
2023/08/08 08:25:08;;;;;;;;;10.80;9.60;;;;;17.30;74.00;99578.81;4973833;28;8832;-61
2023/08/08 08:27:36;;;;;;;;;13.00;13.00;;;;;17.38;73.62;99564.53;4974680;28;8857;-61
2023/08/08 08:30:04;;;;;;;;;5.40;4.80;;;;;17.42;73.70;99582.84;4975047;28;9537;-63
2023/08/08 08:32:32;;;;;;;;;9.40;8.60;;;;;17.48;73.57;99573.22;4975256;28;8828;-60
2023/08/08 08:35:00;;;;;;;;;7.40;7.00;;;;;17.59;73.34;99572.84;4975223;28;8832;-61
2023/08/08 08:37:28;;;;;;;;;9.20;9.00;;;;;17.75;72.80;99576.28;4974511;28;8868;-61
2023/08/08 08:39:56;;;;;;;;;6.40;6.20;;;;;17.85;72.82;99563.44;4974984;28;8843;-62
2023/08/08 08:42:24;;;;;;;;;9.00;6.20;;;;;17.99;72.41;99565.38;4974575;28;8951;-61
2023/08/08 08:44:52;;;;;;;;;9.00;8.20;;;;;18.19;72.31;99574.69;4974913;28;8867;-62
2023/08/08 08:47:20;;;;;;;;;7.00;7.00;;;;;18.43;71.42;99574.53;4973575;28;8972;-61
2023/08/08 08:49:48;;;;;;;;;10.00;10.00;;;;;18.60;71.26;99580.63;4972949;28;8860;-61
2023/08/08 08:52:17;;;;;;;;;8.20;7.20;;;;;18.80;70.90;99579.94;4973136;28;8825;-61
2023/08/08 08:54:44;;;;;;;;;7.00;7.00;;;;;18.94;70.32;99579.13;4972625;28;8840;-61
2023/08/08 08:57:12;;;;;;;;;8.20;7.40;;;;;18.85;70.90;99584.78;4971753;28;8983;-62
2023/08/08 08:59:40;;;;;;;;;9.60;9.20;;;;;18.66;70.89;99578.03;4971122;28;8860;-60
2023/08/08 09:02:08;;;;;;;;;7.00;6.60;;;;;18.55;71.15;99581.19;4971286;28;8863;-62
2023/08/08 09:04:36;;;;;;;;;8.60;8.60;;;;;18.53;71.32;99583.19;4971256;28;8839;-60
2023/08/08 09:07:05;;;;;;;;;7.40;7.40;;;;;18.59;71.12;99578.97;4972240;28;8828;-61
2023/08/08 09:09:33;;;;;;;;;7.00;7.00;;;;;18.64;70.82;99580.09;4972868;28;8930;-61
2023/08/08 09:12:01;;;;;;;;;7.00;7.00;;;;;18.69;70.89;99576.84;4976545;28;8844;-61
2023/08/08 09:14:29;;;;;;;;;6.00;6.00;;;;;18.79;70.85;99567.47;4977481;28;8855;-61
2023/08/08 09:16:57;;;;;;;;;6.00;6.00;;;;;18.90;70.13;99582.38;4977433;28;8855;-60
2023/08/08 09:19:25;;;;;;;;;8.20;6.80;;;;;19.01;70.10;99574.69;4977781;28;8847;-60
2023/08/08 09:21:53;;;;;;;;;6.00;6.00;;;;;19.13;70.13;99566.97;4977901;28;8840;-62
2023/08/08 09:24:21;;;;;;;;;9.00;9.00;;;;;19.21;69.73;99565.03;4978033;28;9526;-61
2023/08/08 09:26:49;;;;;;;;;5.20;4.00;;;;;19.26;69.76;99568.00;4976801;28;9549;-60
2023/08/08 09:29:17;;;;;;;;;7.40;7.00;;;;;19.36;69.40;99559.63;4977556;28;8839;-61
2023/08/08 09:31:45;;;;;;;;;4.40;4.40;;;;;19.55;68.37;99554.50;4977138;28;8889;-60
2023/08/08 09:34:13;;;;;;;;;5.60;4.00;;;;;19.77;67.97;99556.22;4976580;28;8859;-58
2023/08/08 09:36:40;;;;;;;;;6.60;6.20;;;;;19.91;67.80;99551.81;4977215;28;8845;-61
2023/08/08 09:39:09;;;;;;;;;4.00;4.00;;;;;19.89;67.97;99543.88;4977330;28;9542;-61
2023/08/08 09:41:36;;;;;;;;;5.80;4.00;;;;;20.02;67.17;99546.72;4977280;28;8845;-61
2023/08/08 09:44:04;;;;;;;;;5.60;5.60;;;;;20.14;67.13;99553.34;4977780;28;8908;-61
2023/08/08 09:46:32;;;;;;;;;5.00;4.60;;;;;20.24;66.79;99547.63;4977584;28;8824;-59
2023/08/08 09:49:01;;;;;;;;;6.80;6.80;;;;;20.20;66.71;99544.47;4977469;28;9670;-61
2023/08/08 09:51:29;;;;;;;;;5.20;4.20;;;;;20.27;66.83;99548.09;4976929;28;8943;-61
2023/08/08 09:53:57;;;;;;;;;5.00;4.80;;;;;20.31;66.41;99549.34;4976322;28;8849;-61
2023/08/08 09:56:27;;;;;;;;;6.60;6.20;;;;;20.25;66.76;99550.13;4977833;28;8958;-62
2023/08/08 09:58:56;;;;;;;;;4.40;4.40;;;;;20.11;67.31;99545.59;4977238;28;8848;-62
2023/08/08 10:01:23;;;;;;;;;5.60;5.60;;;;;20.05;67.27;99542.84;4977259;28;9511;-61
2023/08/08 10:03:52;;;;;;;;;3.20;3.00;;;;;20.20;66.89;99547.19;4977255;28;8840;-61
2023/08/08 10:06:20;;;;;;;;;6.60;4.20;;;;;20.49;66.01;99541.59;4976396;28;8844;-63
2023/08/08 10:08:48;;;;;;;;;6.80;6.80;;;;;20.59;65.85;99547.56;4976893;28;8846;-62
2023/08/08 10:11:16;;;;;;;;;4.00;4.00;;;;;21.12;64.95;99538.81;4977044;28;8847;-61
2023/08/08 10:13:44;;;;;;;;;5.40;4.60;;;;;21.73;63.55;99549.59;4976571;28;8844;-61
2023/08/08 10:16:13;;;;;;;;;2.80;2.80;;;;;22.07;62.18;99540.50;4976123;28;8833;-61
2023/08/08 10:18:40;;;;;;;;;4.00;2.80;;;;;22.41;61.73;99553.94;4976364;28;9519;-61
2023/08/08 10:21:10;;;;;;;;;4.60;4.60;;;;;22.79;61.21;99553.19;4975402;28;8872;-62
2023/08/08 10:23:38;;;;;;;;;2.40;2.40;;;;;22.71;60.98;99547.97;4976586;28;9629;-62
2023/08/08 10:26:06;;;;;;;;;5.80;5.80;;;;;22.35;62.17;99544.75;4976515;28;8832;-61
2023/08/08 10:28:34;;;;;;;;;4.00;4.00;;;;;22.21;62.49;99544.91;4976585;28;8837;-61
2023/08/08 10:31:04;;;;;;;;;2.00;1.20;;;;;22.36;62.12;99545.56;4976233;28;8833;-61
2023/08/08 10:33:32;;;;;;;;;4.00;4.00;;;;;22.77;61.24;99560.66;4976446;28;8864;-61
2023/08/08 10:36:00;;;;;;;;;4.00;4.00;;;;;23.04;60.66;99546.03;4976139;28;8835;-58
2023/08/08 10:38:27;;;;;;;;;2.00;2.00;;;;;23.36;60.10;99544.34;4975250;28;8942;-58
2023/08/08 10:40:55;;;;;;;;;4.00;2.40;;;;;23.60;59.39;99557.25;4975958;28;8832;-58
2023/08/08 10:43:25;;;;;;;;;2.00;1.80;;;;;23.73;58.84;99557.16;4976205;28;8836;-58
2023/08/08 10:45:53;;;;;;;;;6.00;5.00;;;;;23.61;58.87;99558.91;4976290;28;8950;-61
2023/08/08 10:48:38;;;;;;;;;4.60;4.60;;;;;22.84;60.34;99550.66;4974606;28;8878;-61
2023/08/08 10:51:07;;;;;;;;;5.00;5.00;;;;;22.17;62.53;99551.81;4975322;28;8926;-61
2023/08/08 10:53:34;;;;;;;;;4.40;4.40;;;;;21.64;63.67;99552.66;4975705;28;8836;-61
2023/08/08 10:56:02;;;;;;;;;4.60;4.60;;;;;21.23;64.97;99557.22;4975962;28;8833;-60
2023/08/08 10:58:30;;;;;;;;;5.00;5.00;;;;;20.95;65.14;99551.81;4975071;28;8865;-60
2023/08/08 11:00:58;;;;;;;;;4.00;4.00;;;;;20.77;65.56;99550.59;4974817;28;8916;-60
2023/08/08 11:03:26;;;;;;;;;2.40;2.00;;;;;20.83;64.92;99558.78;4973912;28;8841;-60
2023/08/08 11:05:54;;;;;;;;;4.80;4.40;;;;;20.83;65.05;99550.66;4973473;28;8894;-61
2023/08/08 11:08:22;;;;;;;;;5.00;4.60;;;;;20.69;65.08;99553.44;4974416;28;9244;-61
2023/08/08 11:10:50;;;;;;;;;2.00;2.00;;;;;20.47;65.41;99561.81;4975322;28;8837;-61
2023/08/08 11:13:18;;;;;;;;;4.00;4.00;;;;;20.20;65.69;99568.81;4974770;28;8837;-63
2023/08/08 11:15:46;;;;;;;;;4.00;4.00;;;;;19.96;66.43;99561.00;4972804;28;8832;-61
2023/08/08 11:18:14;;;;;;;;;3.60;3.20;;;;;19.70;66.39;99587.72;4973923;28;8832;-59
2023/08/08 11:20:43;;;;;;;;;4.00;4.00;;;;;19.46;67.03;99576.38;4974465;28;8849;-60
2023/08/08 11:23:12;;;;;;;;;5.40;4.00;;;;;19.25;67.72;99577.13;4973723;28;8832;-60
2023/08/08 11:25:40;;;;;;;;;4.80;4.80;;;;;19.07;67.49;99582.03;4973951;28;8983;-61
2023/08/08 11:28:08;;;;;;;;;4.00;3.00;;;;;18.91;68.23;99576.78;4974188;28;8923;-62
2023/08/08 11:30:35;;;;;;;;;4.00;3.40;;;;;18.78;68.08;99586.53;4974749;28;8840;-61
2023/08/08 11:33:03;;;;;;;;;3.00;3.00;;;;;18.67;68.46;99582.41;4973422;28;8840;-61
2023/08/08 11:35:35;;;;;;;;;8.00;6.80;;;;;18.56;68.74;99582.84;4974074;28;8808;-60
2023/08/08 11:38:02;;;;;;;;;5.60;5.60;;;;;18.45;68.65;99585.97;4974419;28;8864;-62
2023/08/08 11:40:32;;;;;;;;;5.60;4.80;;;;;18.38;69.00;99573.41;4974432;28;8833;-62
2023/08/08 11:43:01;;;;;;;;;4.00;3.20;;;;;18.36;69.21;99584.34;4973499;28;8849;-62